Overview Statistics Trail Chart Weather Telemetry Raw packets
 

This is the latest recevied telemetry packets stored in our database for station/object IZ7EXI-2. If no packets are shown the sender has not sent any telemetry packets the latest 10 day(s).

Telemetry packets is used to share measurements like repeteater parameters, battery voltage, radiation readings (or any other measurements).

<< 1 2 3 4 >>
Time Press* Temp.in* Hum* QNH* Temp.out*
1777869448 1012.9 hPa 20.5 C deg 44.2 % 1013 hPa 0 C deg
1777867633 1012.7 hPa 20 C deg 45.8 % 1012.8 hPa 0 C deg
1777865818 1012.6 hPa 20 C deg 46.4 % 1012.7 hPa 0 C deg
1777864003 1012.7 hPa 20.2 C deg 47.4 % 1012.8 hPa 0 C deg
1777862188 1012.8 hPa 20.3 C deg 45.9 % 1012.9 hPa 0 C deg
1777860373 1012.7 hPa 20.3 C deg 44.6 % 1012.8 hPa 0 C deg
1777858558 1012.8 hPa 20.7 C deg 43.6 % 1012.9 hPa 0 C deg
1777856743 1012.8 hPa 20.9 C deg 41.1 % 1012.9 hPa 0 C deg
1777854930 1012.8 hPa 21.1 C deg 39.8 % 1012.9 hPa 0 C deg
1777853112 1012.9 hPa 21.4 C deg 40 % 1013 hPa 0 C deg
1777851297 1013.1 hPa 21.4 C deg 40.8 % 1013.2 hPa 0 C deg
1777849482 1013.2 hPa 21.8 C deg 39.6 % 1013.3 hPa 0 C deg
1777847667 1013 hPa 22.1 C deg 40.7 % 1013.1 hPa 0 C deg
1777845852 1013 hPa 22.5 C deg 40.8 % 1013.1 hPa 0 C deg
1777844036 1012.8 hPa 22.9 C deg 40.5 % 1012.9 hPa 0 C deg
1777842221 1012.9 hPa 23.2 C deg 39.5 % 1013 hPa 0 C deg
1777840406 1012.6 hPa 23.7 C deg 37.9 % 1012.7 hPa 0 C deg
1777838591 1012.3 hPa 24.8 C deg 36 % 1012.4 hPa 0 C deg
1777836776 1012.3 hPa 26.3 C deg 34.6 % 1012.4 hPa 0 C deg
1777834961 1012.1 hPa 28.2 C deg 33.4 % 1012.2 hPa 0 C deg
1777833146 1011.8 hPa 30.3 C deg 31.1 % 1011.9 hPa 0 C deg
1777831331 1011.7 hPa 34.4 C deg 26.6 % 1011.9 hPa 0 C deg
1777829516 1011.8 hPa 40.9 C deg 21.7 % 1011.9 hPa 0 C deg
1777827700 1011.9 hPa 44.5 C deg 18.4 % 1012 hPa 0 C deg
1777825885 1012 hPa 46.8 C deg 19.1 % 1012.1 hPa 0 C deg
*Used Equation Coefficients:
Press: 0, 1, 0
Temp.in: 0, 1, 0
Hum: 0, 1, 0
QNH: 0, 1, 0
Temp.out: 0, 1, 0

  • The parameter names for the analog channels will be Value1, Value2, Value3 (up to Value5) if station has not sent a PARAM-packet that specifies the parameter names for each analog channel.
  • Each analog value is a decimal number between 000 and 255 (according to APRS specifications). The receiver use the telemetry equation coefficientsto to restore the original sensor values. If no EQNS-packet with equation coefficients is sent we will show the values as is (this corresponds to the equation coefficients a=0, b=1 and c=0).
    The sent equation coefficients is used in the equation: a * value2 + b * value + c.
  • The units for the analog values will not be shown if station has not sent a UNIT-packet specifying what unit's to use.
  • The parameter names for the digital bits will be Bit1, Bit2, Bit3 (up to Bit8) if station has not sent a PARAM-packet that specifies the parameter names for each digital bit.
  • All bit labels will be named "On" if station has not sent a UNIT-packet that specifies the label of each bit.
  • A bit is considered to be On when the bit is 1 if station has not sent a BITS-packet that specifies another "Bit sense" (a BITS-packet specify the state of the bits that match the BIT labels)